sensor_id;sensor_type;location;lat;lon;timestamp;temperature;humidity
22108;DHT22;11220;48.812;9.128;2023-08-06T00:01:51;21.30;95.20
22108;DHT22;11220;48.812;9.128;2023-08-06T00:04:17;21.20;95.20
22108;DHT22;11220;48.812;9.128;2023-08-06T00:06:42;21.30;95.20
22108;DHT22;11220;48.812;9.128;2023-08-06T00:09:08;21.20;95.30
22108;DHT22;11220;48.812;9.128;2023-08-06T00:11:33;21.20;95.30
22108;DHT22;11220;48.812;9.128;2023-08-06T00:13:59;21.20;95.30
22108;DHT22;11220;48.812;9.128;2023-08-06T00:16:24;21.20;95.30
22108;DHT22;11220;48.812;9.128;2023-08-06T00:18:50;21.20;95.30
22108;DHT22;11220;48.812;9.128;2023-08-06T00:21:15;21.60;95.40
22108;DHT22;11220;48.812;9.128;2023-08-06T00:23:41;21.20;95.20
22108;DHT22;11220;48.812;9.128;2023-08-06T00:26:07;21.20;95.10
22108;DHT22;11220;48.812;9.128;2023-08-06T00:28:33;21.10;95.10
22108;DHT22;11220;48.812;9.128;2023-08-06T00:30:58;21.20;95.10
22108;DHT22;11220;48.812;9.128;2023-08-06T00:33:24;21.10;95.00
22108;DHT22;11220;48.812;9.128;2023-08-06T00:35:49;21.10;95.00
22108;DHT22;11220;48.812;9.128;2023-08-06T00:38:15;21.10;94.90
22108;DHT22;11220;48.812;9.128;2023-08-06T00:40:41;21.10;94.90
22108;DHT22;11220;48.812;9.128;2023-08-06T00:43:06;21.10;95.30
22108;DHT22;11220;48.812;9.128;2023-08-06T00:45:35;21.10;94.90
22108;DHT22;11220;48.812;9.128;2023-08-06T00:48:02;21.00;94.90
22108;DHT22;11220;48.812;9.128;2023-08-06T00:50:29;21.00;94.80
22108;DHT22;11220;48.812;9.128;2023-08-06T00:52:55;21.00;94.70
22108;DHT22;11220;48.812;9.128;2023-08-06T00:55:20;21.00;94.70
22108;DHT22;11220;48.812;9.128;2023-08-06T00:57:46;21.00;94.60
22108;DHT22;11220;48.812;9.128;2023-08-06T01:00:12;21.20;94.70
22108;DHT22;11220;48.812;9.128;2023-08-06T01:02:38;21.00;94.60
22108;DHT22;11220;48.812;9.128;2023-08-06T01:05:04;21.00;94.60
22108;DHT22;11220;48.812;9.128;2023-08-06T01:16:03;20.90;94.30
22108;DHT22;11220;48.812;9.128;2023-08-06T01:18:30;20.90;94.20
22108;DHT22;11220;48.812;9.128;2023-08-06T01:20:57;21.00;94.30
22108;DHT22;11220;48.812;9.128;2023-08-06T01:23:23;20.90;94.20
22108;DHT22;11220;48.812;9.128;2023-08-06T01:25:50;20.90;94.20
22108;DHT22;11220;48.812;9.128;2023-08-06T01:28:27;20.90;94.30
22108;DHT22;11220;48.812;9.128;2023-08-06T01:30:55;20.90;94.30
22108;DHT22;11220;48.812;9.128;2023-08-06T01:33:22;20.90;94.30
22108;DHT22;11220;48.812;9.128;2023-08-06T01:35:49;20.90;94.30
22108;DHT22;11220;48.812;9.128;2023-08-06T01:38:15;20.90;94.40
22108;DHT22;11220;48.812;9.128;2023-08-06T01:40:41;20.80;94.30
22108;DHT22;11220;48.812;9.128;2023-08-06T01:43:06;20.90;94.40
22108;DHT22;11220;48.812;9.128;2023-08-06T01:45:32;20.90;94.40
22108;DHT22;11220;48.812;9.128;2023-08-06T01:47:57;20.80;94.40
22108;DHT22;11220;48.812;9.128;2023-08-06T01:50:23;20.80;94.40
22108;DHT22;11220;48.812;9.128;2023-08-06T01:52:49;20.80;94.40
22108;DHT22;11220;48.812;9.128;2023-08-06T01:55:14;20.80;94.40
22108;DHT22;11220;48.812;9.128;2023-08-06T01:57:40;21.20;94.50
22108;DHT22;11220;48.812;9.128;2023-08-06T02:00:06;21.30;94.40
22108;DHT22;11220;48.812;9.128;2023-08-06T02:02:31;20.80;94.30
22108;DHT22;11220;48.812;9.128;2023-08-06T02:04:57;20.80;94.20
22108;DHT22;11220;48.812;9.128;2023-08-06T02:07:23;20.80;94.20
22108;DHT22;11220;48.812;9.128;2023-08-06T02:09:49;20.80;94.10
22108;DHT22;11220;48.812;9.128;2023-08-06T02:12:14;20.80;94.10
22108;DHT22;11220;48.812;9.128;2023-08-06T02:14:40;20.80;94.10
22108;DHT22;11220;48.812;9.128;2023-08-06T02:17:05;20.80;94.00
22108;DHT22;11220;48.812;9.128;2023-08-06T02:19:31;20.80;94.00
22108;DHT22;11220;48.812;9.128;2023-08-06T02:21:56;20.70;94.40
22108;DHT22;11220;48.812;9.128;2023-08-06T02:24:22;20.80;94.00
22108;DHT22;11220;48.812;9.128;2023-08-06T02:26:47;20.80;93.90
22108;DHT22;11220;48.812;9.128;2023-08-06T02:29:16;20.90;93.90
22108;DHT22;11220;48.812;9.128;2023-08-06T02:31:42;20.70;93.80
22108;DHT22;11220;48.812;9.128;2023-08-06T02:34:07;20.80;93.90
22108;DHT22;11220;48.812;9.128;2023-08-06T02:36:33;20.70;93.80
22108;DHT22;11220;48.812;9.128;2023-08-06T02:38:58;20.80;93.80
22108;DHT22;11220;48.812;9.128;2023-08-06T02:41:23;20.70;93.70
22108;DHT22;11220;48.812;9.128;2023-08-06T02:43:49;20.70;93.70
22108;DHT22;11220;48.812;9.128;2023-08-06T02:46:14;20.70;93.60
22108;DHT22;11220;48.812;9.128;2023-08-06T02:48:40;20.70;93.60
22108;DHT22;11220;48.812;9.128;2023-08-06T02:51:05;20.70;93.60
22108;DHT22;11220;48.812;9.128;2023-08-06T02:53:31;20.70;93.60
22108;DHT22;11220;48.812;9.128;2023-08-06T02:55:57;20.70;93.60
22108;DHT22;11220;48.812;9.128;2023-08-06T02:58:22;20.70;93.50
22108;DHT22;11220;48.812;9.128;2023-08-06T03:01:05;20.70;93.50
22108;DHT22;11220;48.812;9.128;2023-08-06T03:03:31;20.70;93.50
22108;DHT22;11220;48.812;9.128;2023-08-06T03:05:57;20.70;93.50
22108;DHT22;11220;48.812;9.128;2023-08-06T03:08:23;20.70;93.50
22108;DHT22;11220;48.812;9.128;2023-08-06T03:10:52;20.60;93.40
22108;DHT22;11220;48.812;9.128;2023-08-06T03:13:18;20.70;93.50
22108;DHT22;11220;48.812;9.128;2023-08-06T03:15:52;20.70;93.50
22108;DHT22;11220;48.812;9.128;2023-08-06T03:18:18;20.60;93.50
22108;DHT22;11220;48.812;9.128;2023-08-06T03:20:44;20.70;93.50
22108;DHT22;11220;48.812;9.128;2023-08-06T03:23:10;20.60;93.50
22108;DHT22;11220;48.812;9.128;2023-08-06T03:25:35;20.70;93.60
22108;DHT22;11220;48.812;9.128;2023-08-06T03:28:02;20.70;93.60
22108;DHT22;11220;48.812;9.128;2023-08-06T03:30:30;20.60;93.60
22108;DHT22;11220;48.812;9.128;2023-08-06T03:32:56;20.60;93.70
22108;DHT22;11220;48.812;9.128;2023-08-06T03:35:21;20.60;93.70
22108;DHT22;11220;48.812;9.128;2023-08-06T03:37:47;20.60;93.70
22108;DHT22;11220;48.812;9.128;2023-08-06T03:40:13;20.60;93.60
22108;DHT22;11220;48.812;9.128;2023-08-06T03:42:39;20.60;93.60
22108;DHT22;11220;48.812;9.128;2023-08-06T03:45:05;20.60;93.70
22108;DHT22;11220;48.812;9.128;2023-08-06T03:47:30;20.60;93.70
22108;DHT22;11220;48.812;9.128;2023-08-06T03:49:56;20.60;93.70
22108;DHT22;11220;48.812;9.128;2023-08-06T03:52:21;20.60;93.80
22108;DHT22;11220;48.812;9.128;2023-08-06T03:54:47;20.60;93.80
22108;DHT22;11220;48.812;9.128;2023-08-06T03:57:13;20.60;93.80
22108;DHT22;11220;48.812;9.128;2023-08-06T03:59:38;20.60;93.80
22108;DHT22;11220;48.812;9.128;2023-08-06T04:02:04;21.30;94.00
22108;DHT22;11220;48.812;9.128;2023-08-06T04:04:29;20.60;93.90
22108;DHT22;11220;48.812;9.128;2023-08-06T04:06:55;20.60;93.90
22108;DHT22;11220;48.812;9.128;2023-08-06T04:09:20;20.60;93.90
22108;DHT22;11220;48.812;9.128;2023-08-06T04:11:46;20.60;93.90
22108;DHT22;11220;48.812;9.128;2023-08-06T04:14:11;20.60;94.00
22108;DHT22;11220;48.812;9.128;2023-08-06T04:16:37;20.60;94.00
22108;DHT22;11220;48.812;9.128;2023-08-06T04:19:02;20.60;94.00
22108;DHT22;11220;48.812;9.128;2023-08-06T04:21:28;20.60;94.00
22108;DHT22;11220;48.812;9.128;2023-08-06T04:23:54;20.60;94.00
22108;DHT22;11220;48.812;9.128;2023-08-06T04:26:19;20.60;94.00
22108;DHT22;11220;48.812;9.128;2023-08-06T04:28:45;20.60;94.00
22108;DHT22;11220;48.812;9.128;2023-08-06T04:31:10;20.60;94.00
22108;DHT22;11220;48.812;9.128;2023-08-06T04:33:36;20.60;94.10
22108;DHT22;11220;48.812;9.128;2023-08-06T04:36:01;20.50;94.00
22108;DHT22;11220;48.812;9.128;2023-08-06T04:38:27;20.60;94.00
22108;DHT22;11220;48.812;9.128;2023-08-06T04:40:53;20.60;94.00
22108;DHT22;11220;48.812;9.128;2023-08-06T04:43:19;20.60;94.10
22108;DHT22;11220;48.812;9.128;2023-08-06T04:45:49;20.50;94.00
22108;DHT22;11220;48.812;9.128;2023-08-06T04:48:15;20.60;94.00
22108;DHT22;11220;48.812;9.128;2023-08-06T04:50:44;20.60;93.90
22108;DHT22;11220;48.812;9.128;2023-08-06T04:53:10;21.00;94.10
22108;DHT22;11220;48.812;9.128;2023-08-06T04:55:36;20.50;93.90
22108;DHT22;11220;48.812;9.128;2023-08-06T04:58:01;20.60;94.00
22108;DHT22;11220;48.812;9.128;2023-08-06T05:00:27;20.50;94.00
22108;DHT22;11220;48.812;9.128;2023-08-06T05:02:52;20.50;93.90
22108;DHT22;11220;48.812;9.128;2023-08-06T05:05:18;20.50;93.90
22108;DHT22;11220;48.812;9.128;2023-08-06T05:07:45;20.50;94.00
22108;DHT22;11220;48.812;9.128;2023-08-06T05:10:10;20.50;94.00
22108;DHT22;11220;48.812;9.128;2023-08-06T05:12:36;20.50;94.00
22108;DHT22;11220;48.812;9.128;2023-08-06T05:15:01;20.50;94.00
22108;DHT22;11220;48.812;9.128;2023-08-06T05:17:27;20.50;93.90
22108;DHT22;11220;48.812;9.128;2023-08-06T05:19:52;20.50;94.00
22108;DHT22;11220;48.812;9.128;2023-08-06T05:22:18;20.50;94.00
22108;DHT22;11220;48.812;9.128;2023-08-06T05:24:43;20.50;94.00
22108;DHT22;11220;48.812;9.128;2023-08-06T05:27:09;20.50;94.00
22108;DHT22;11220;48.812;9.128;2023-08-06T05:29:34;20.50;94.00
22108;DHT22;11220;48.812;9.128;2023-08-06T05:32:00;20.90;94.50
22108;DHT22;11220;48.812;9.128;2023-08-06T05:34:25;20.70;94.00
22108;DHT22;11220;48.812;9.128;2023-08-06T05:36:51;20.50;94.00
22108;DHT22;11220;48.812;9.128;2023-08-06T05:39:18;20.50;94.10
22108;DHT22;11220;48.812;9.128;2023-08-06T05:41:43;20.50;94.20
22108;DHT22;11220;48.812;9.128;2023-08-06T05:44:09;20.50;94.20
22108;DHT22;11220;48.812;9.128;2023-08-06T05:46:34;21.10;94.50
22108;DHT22;11220;48.812;9.128;2023-08-06T05:49:00;20.70;94.40
22108;DHT22;11220;48.812;9.128;2023-08-06T05:51:26;20.60;94.40
22108;DHT22;11220;48.812;9.128;2023-08-06T05:53:52;20.60;94.50
22108;DHT22;11220;48.812;9.128;2023-08-06T05:56:17;20.60;94.50
22108;DHT22;11220;48.812;9.128;2023-08-06T05:58:43;20.50;94.60
22108;DHT22;11220;48.812;9.128;2023-08-06T06:01:08;20.50;94.60
22108;DHT22;11220;48.812;9.128;2023-08-06T06:03:34;20.60;94.70
22108;DHT22;11220;48.812;9.128;2023-08-06T06:06:01;20.60;94.70
22108;DHT22;11220;48.812;9.128;2023-08-06T06:08:26;20.50;94.50
22108;DHT22;11220;48.812;9.128;2023-08-06T06:10:52;20.60;94.60
22108;DHT22;11220;48.812;9.128;2023-08-06T06:13:17;20.50;94.50
22108;DHT22;11220;48.812;9.128;2023-08-06T06:15:43;20.50;94.40
22108;DHT22;11220;48.812;9.128;2023-08-06T06:18:08;20.60;94.40
22108;DHT22;11220;48.812;9.128;2023-08-06T06:20:34;20.50;94.70
22108;DHT22;11220;48.812;9.128;2023-08-06T06:22:59;20.50;94.20
22108;DHT22;11220;48.812;9.128;2023-08-06T06:25:25;20.50;94.20
22108;DHT22;11220;48.812;9.128;2023-08-06T06:27:50;20.50;94.30
22108;DHT22;11220;48.812;9.128;2023-08-06T06:30:17;20.50;94.30
22108;DHT22;11220;48.812;9.128;2023-08-06T06:32:42;20.50;94.30
22108;DHT22;11220;48.812;9.128;2023-08-06T06:35:09;20.50;94.30
22108;DHT22;11220;48.812;9.128;2023-08-06T06:37:35;20.50;94.20
22108;DHT22;11220;48.812;9.128;2023-08-06T06:40:00;20.50;94.20
22108;DHT22;11220;48.812;9.128;2023-08-06T06:42:26;20.50;94.20
22108;DHT22;11220;48.812;9.128;2023-08-06T06:44:51;20.50;94.20
22108;DHT22;11220;48.812;9.128;2023-08-06T06:47:17;20.50;94.30
22108;DHT22;11220;48.812;9.128;2023-08-06T06:49:42;20.50;94.20
22108;DHT22;11220;48.812;9.128;2023-08-06T06:52:08;20.50;94.20
22108;DHT22;11220;48.812;9.128;2023-08-06T06:54:34;20.50;94.30
22108;DHT22;11220;48.812;9.128;2023-08-06T06:56:59;21.00;94.40
22108;DHT22;11220;48.812;9.128;2023-08-06T06:59:25;20.50;94.20
22108;DHT22;11220;48.812;9.128;2023-08-06T07:01:50;20.60;94.30
22108;DHT22;11220;48.812;9.128;2023-08-06T07:04:16;20.80;94.30
22108;DHT22;11220;48.812;9.128;2023-08-06T07:06:41;20.50;94.20
22108;DHT22;11220;48.812;9.128;2023-08-06T07:09:07;20.60;94.30
22108;DHT22;11220;48.812;9.128;2023-08-06T07:11:32;20.60;94.30
22108;DHT22;11220;48.812;9.128;2023-08-06T07:13:58;20.60;94.20
22108;DHT22;11220;48.812;9.128;2023-08-06T07:16:25;20.50;94.60
22108;DHT22;11220;48.812;9.128;2023-08-06T07:18:56;20.60;94.30
22108;DHT22;11220;48.812;9.128;2023-08-06T07:21:22;20.50;94.30
22108;DHT22;11220;48.812;9.128;2023-08-06T07:23:47;20.50;94.30
22108;DHT22;11220;48.812;9.128;2023-08-06T07:26:15;20.50;94.20
22108;DHT22;11220;48.812;9.128;2023-08-06T07:28:40;20.50;94.20
22108;DHT22;11220;48.812;9.128;2023-08-06T07:31:06;21.50;94.50
22108;DHT22;11220;48.812;9.128;2023-08-06T07:33:31;20.90;94.30
22108;DHT22;11220;48.812;9.128;2023-08-06T07:35:57;20.70;94.20
22108;DHT22;11220;48.812;9.128;2023-08-06T07:38:22;20.60;94.10
22108;DHT22;11220;48.812;9.128;2023-08-06T07:40:48;21.10;94.20
22108;DHT22;11220;48.812;9.128;2023-08-06T07:43:14;21.20;94.30
22108;DHT22;11220;48.812;9.128;2023-08-06T07:45:39;20.70;94.20
22108;DHT22;11220;48.812;9.128;2023-08-06T07:48:05;20.50;94.10
22108;DHT22;11220;48.812;9.128;2023-08-06T07:50:30;20.60;94.10
22108;DHT22;11220;48.812;9.128;2023-08-06T07:52:56;20.60;94.10
22108;DHT22;11220;48.812;9.128;2023-08-06T07:55:22;20.60;94.10
22108;DHT22;11220;48.812;9.128;2023-08-06T07:57:47;20.60;94.10
22108;DHT22;11220;48.812;9.128;2023-08-06T08:00:13;20.60;94.10
22108;DHT22;11220;48.812;9.128;2023-08-06T08:02:38;20.60;94.10
22108;DHT22;11220;48.812;9.128;2023-08-06T08:05:04;20.60;94.10
22108;DHT22;11220;48.812;9.128;2023-08-06T08:07:30;20.70;94.10
22108;DHT22;11220;48.812;9.128;2023-08-06T08:09:56;20.70;94.10
22108;DHT22;11220;48.812;9.128;2023-08-06T08:12:22;20.80;94.10
22108;DHT22;11220;48.812;9.128;2023-08-06T08:14:48;20.70;94.00
22108;DHT22;11220;48.812;9.128;2023-08-06T08:17:13;21.10;94.20
22108;DHT22;11220;48.812;9.128;2023-08-06T08:19:40;20.80;94.10
22108;DHT22;11220;48.812;9.128;2023-08-06T08:22:06;20.80;94.10
22108;DHT22;11220;48.812;9.128;2023-08-06T08:24:32;20.80;94.10
22108;DHT22;11220;48.812;9.128;2023-08-06T08:26:57;20.80;94.50
22108;DHT22;11220;48.812;9.128;2023-08-06T08:29:23;20.90;94.10
22108;DHT22;11220;48.812;9.128;2023-08-06T08:31:48;20.90;94.10
22108;DHT22;11220;48.812;9.128;2023-08-06T08:34:18;21.00;94.30
22108;DHT22;11220;48.812;9.128;2023-08-06T08:36:44;21.00;94.30
22108;DHT22;11220;48.812;9.128;2023-08-06T08:39:12;21.00;92.80
22108;DHT22;11220;48.812;9.128;2023-08-06T08:41:39;20.90;91.70
22108;DHT22;11220;48.812;9.128;2023-08-06T08:44:08;20.80;91.40
22108;DHT22;11220;48.812;9.128;2023-08-06T08:46:36;20.60;91.50
22108;DHT22;11220;48.812;9.128;2023-08-06T08:49:03;20.50;91.30
22108;DHT22;11220;48.812;9.128;2023-08-06T08:51:30;20.40;91.30
22108;DHT22;11220;48.812;9.128;2023-08-06T08:53:56;20.30;91.30
22108;DHT22;11220;48.812;9.128;2023-08-06T08:56:23;20.20;91.30
22108;DHT22;11220;48.812;9.128;2023-08-06T08:58:49;20.10;91.70
22108;DHT22;11220;48.812;9.128;2023-08-06T09:01:15;20.00;91.90
22108;DHT22;11220;48.812;9.128;2023-08-06T09:03:42;20.70;92.20
22108;DHT22;11220;48.812;9.128;2023-08-06T09:06:10;19.90;92.00
22108;DHT22;11220;48.812;9.128;2023-08-06T09:08:40;20.00;92.30
22108;DHT22;11220;48.812;9.128;2023-08-06T09:11:09;19.80;92.20
22108;DHT22;11220;48.812;9.128;2023-08-06T09:13:37;19.80;92.10
22108;DHT22;11220;48.812;9.128;2023-08-06T09:16:03;19.90;92.20
22108;DHT22;11220;48.812;9.128;2023-08-06T09:18:30;19.70;92.60
22108;DHT22;11220;48.812;9.128;2023-08-06T09:20:57;19.70;92.70
22108;DHT22;11220;48.812;9.128;2023-08-06T09:23:32;19.80;93.00
22108;DHT22;11220;48.812;9.128;2023-08-06T09:25:58;19.70;92.90
22108;DHT22;11220;48.812;9.128;2023-08-06T09:28:25;19.70;92.60
22108;DHT22;11220;48.812;9.128;2023-08-06T09:31:01;19.70;92.50
22108;DHT22;11220;48.812;9.128;2023-08-06T09:33:29;19.70;92.80
22108;DHT22;11220;48.812;9.128;2023-08-06T09:35:54;19.70;93.20
22108;DHT22;11220;48.812;9.128;2023-08-06T09:38:20;19.70;93.40
22108;DHT22;11220;48.812;9.128;2023-08-06T09:40:47;19.60;93.40
22108;DHT22;11220;48.812;9.128;2023-08-06T09:43:12;19.60;94.00
22108;DHT22;11220;48.812;9.128;2023-08-06T09:45:39;19.60;93.50
22108;DHT22;11220;48.812;9.128;2023-08-06T09:48:06;19.50;93.50
22108;DHT22;11220;48.812;9.128;2023-08-06T09:50:34;19.50;93.60
22108;DHT22;11220;48.812;9.128;2023-08-06T09:53:04;19.50;93.60
22108;DHT22;11220;48.812;9.128;2023-08-06T09:55:30;19.50;93.60
22108;DHT22;11220;48.812;9.128;2023-08-06T09:57:58;19.50;93.70
22108;DHT22;11220;48.812;9.128;2023-08-06T10:00:24;19.40;94.00
22108;DHT22;11220;48.812;9.128;2023-08-06T10:02:50;19.30;93.90
22108;DHT22;11220;48.812;9.128;2023-08-06T10:05:20;19.30;94.10
22108;DHT22;11220;48.812;9.128;2023-08-06T10:07:47;19.20;94.30
22108;DHT22;11220;48.812;9.128;2023-08-06T10:10:14;19.40;94.80
22108;DHT22;11220;48.812;9.128;2023-08-06T10:12:43;19.40;95.20
22108;DHT22;11220;48.812;9.128;2023-08-06T10:15:26;19.50;95.40
22108;DHT22;11220;48.812;9.128;2023-08-06T10:17:56;19.60;95.60
22108;DHT22;11220;48.812;9.128;2023-08-06T10:20:22;19.70;95.60
22108;DHT22;11220;48.812;9.128;2023-08-06T10:23:03;20.00;95.60
22108;DHT22;11220;48.812;9.128;2023-08-06T10:25:35;19.90;95.50
22108;DHT22;11220;48.812;9.128;2023-08-06T10:28:11;19.90;95.50
22108;DHT22;11220;48.812;9.128;2023-08-06T10:30:46;20.00;95.50
22108;DHT22;11220;48.812;9.128;2023-08-06T10:33:12;20.10;95.60
22108;DHT22;11220;48.812;9.128;2023-08-06T10:35:41;20.10;95.60
22108;DHT22;11220;48.812;9.128;2023-08-06T10:38:16;20.20;95.60
22108;DHT22;11220;48.812;9.128;2023-08-06T10:40:49;20.20;95.50
22108;DHT22;11220;48.812;9.128;2023-08-06T10:43:48;20.30;95.40
22108;DHT22;11220;48.812;9.128;2023-08-06T10:46:23;20.30;95.40
22108;DHT22;11220;48.812;9.128;2023-08-06T10:48:49;20.40;95.40
22108;DHT22;11220;48.812;9.128;2023-08-06T10:51:16;20.40;95.40
22108;DHT22;11220;48.812;9.128;2023-08-06T10:53:43;20.40;95.30
22108;DHT22;11220;48.812;9.128;2023-08-06T10:56:19;20.40;95.30
22108;DHT22;11220;48.812;9.128;2023-08-06T10:58:46;20.50;95.20
22108;DHT22;11220;48.812;9.128;2023-08-06T11:01:12;20.50;95.20
22108;DHT22;11220;48.812;9.128;2023-08-06T11:03:39;20.80;95.30
22108;DHT22;11220;48.812;9.128;2023-08-06T11:06:06;20.60;95.30
22108;DHT22;11220;48.812;9.128;2023-08-06T11:08:36;20.50;95.20
22108;DHT22;11220;48.812;9.128;2023-08-06T11:11:13;20.50;95.10
22108;DHT22;11220;48.812;9.128;2023-08-06T11:13:40;20.60;95.20
22108;DHT22;11220;48.812;9.128;2023-08-06T11:16:06;20.50;95.00
22108;DHT22;11220;48.812;9.128;2023-08-06T11:18:32;20.50;95.00
22108;DHT22;11220;48.812;9.128;2023-08-06T11:20:59;20.60;94.90
22108;DHT22;11220;48.812;9.128;2023-08-06T11:23:27;20.60;94.80
22108;DHT22;11220;48.812;9.128;2023-08-06T11:25:53;20.60;94.80
22108;DHT22;11220;48.812;9.128;2023-08-06T11:28:19;20.60;94.70
22108;DHT22;11220;48.812;9.128;2023-08-06T11:30:47;20.70;94.70
22108;DHT22;11220;48.812;9.128;2023-08-06T11:33:12;20.60;94.60
22108;DHT22;11220;48.812;9.128;2023-08-06T11:35:38;20.70;94.50
22108;DHT22;11220;48.812;9.128;2023-08-06T11:38:05;20.70;94.50
22108;DHT22;11220;48.812;9.128;2023-08-06T11:40:32;20.70;94.40
22108;DHT22;11220;48.812;9.128;2023-08-06T11:42:58;20.70;94.30
22108;DHT22;11220;48.812;9.128;2023-08-06T11:45:26;20.70;94.30
22108;DHT22;11220;48.812;9.128;2023-08-06T11:47:52;20.70;94.30
22108;DHT22;11220;48.812;9.128;2023-08-06T11:50:27;20.70;94.30
22108;DHT22;11220;48.812;9.128;2023-08-06T11:52:58;20.70;94.20
22108;DHT22;11220;48.812;9.128;2023-08-06T11:55:25;20.70;94.20
22108;DHT22;11220;48.812;9.128;2023-08-06T11:57:51;20.70;94.10
22108;DHT22;11220;48.812;9.128;2023-08-06T12:00:17;21.00;94.20
22108;DHT22;11220;48.812;9.128;2023-08-06T12:02:45;20.70;94.00
22108;DHT22;11220;48.812;9.128;2023-08-06T12:05:12;20.90;94.10
22108;DHT22;11220;48.812;9.128;2023-08-06T12:07:41;20.60;94.00
22108;DHT22;11220;48.812;9.128;2023-08-06T12:10:07;20.70;94.10
22108;DHT22;11220;48.812;9.128;2023-08-06T12:12:34;20.70;94.10
22108;DHT22;11220;48.812;9.128;2023-08-06T12:14:59;20.70;94.00
22108;DHT22;11220;48.812;9.128;2023-08-06T12:17:25;20.70;93.90
22108;DHT22;11220;48.812;9.128;2023-08-06T12:19:51;20.60;93.90
22108;DHT22;11220;48.812;9.128;2023-08-06T12:22:17;20.70;93.90
22108;DHT22;11220;48.812;9.128;2023-08-06T12:24:45;20.70;94.30
22108;DHT22;11220;48.812;9.128;2023-08-06T12:27:11;20.90;94.00
22108;DHT22;11220;48.812;9.128;2023-08-06T12:29:48;20.90;93.90
22108;DHT22;11220;48.812;9.128;2023-08-06T12:32:14;20.70;93.80
22108;DHT22;11220;48.812;9.128;2023-08-06T12:34:41;20.60;94.10
22108;DHT22;11220;48.812;9.128;2023-08-06T12:37:07;20.70;93.70
22108;DHT22;11220;48.812;9.128;2023-08-06T12:39:33;20.70;93.50
22108;DHT22;11220;48.812;9.128;2023-08-06T12:42:00;20.90;93.60
22108;DHT22;11220;48.812;9.128;2023-08-06T12:44:26;21.10;93.60
22108;DHT22;11220;48.812;9.128;2023-08-06T12:46:51;20.80;93.40
22108;DHT22;11220;48.812;9.128;2023-08-06T12:49:18;21.50;93.60
22108;DHT22;11220;48.812;9.128;2023-08-06T12:51:43;20.90;93.50
22108;DHT22;11220;48.812;9.128;2023-08-06T12:54:09;21.10;93.50
22108;DHT22;11220;48.812;9.128;2023-08-06T12:56:35;21.40;93.50
22108;DHT22;11220;48.812;9.128;2023-08-06T12:59:00;21.10;93.50
22108;DHT22;11220;48.812;9.128;2023-08-06T13:01:26;21.10;93.60
22108;DHT22;11220;48.812;9.128;2023-08-06T13:03:51;21.10;93.50
22108;DHT22;11220;48.812;9.128;2023-08-06T13:06:17;21.30;93.50
22108;DHT22;11220;48.812;9.128;2023-08-06T13:08:42;21.10;93.30
22108;DHT22;11220;48.812;9.128;2023-08-06T13:11:08;21.10;93.30
22108;DHT22;11220;48.812;9.128;2023-08-06T13:13:33;21.40;93.40
22108;DHT22;11220;48.812;9.128;2023-08-06T13:15:59;21.20;93.30
22108;DHT22;11220;48.812;9.128;2023-08-06T13:18:25;21.10;93.20
22108;DHT22;11220;48.812;9.128;2023-08-06T13:20:53;21.10;93.10
22108;DHT22;11220;48.812;9.128;2023-08-06T13:23:19;21.60;93.60
22108;DHT22;11220;48.812;9.128;2023-08-06T13:25:45;21.10;93.10
22108;DHT22;11220;48.812;9.128;2023-08-06T13:28:10;21.10;93.10
22108;DHT22;11220;48.812;9.128;2023-08-06T13:30:36;21.10;93.00
22108;DHT22;11220;48.812;9.128;2023-08-06T13:33:10;21.80;93.10
22108;DHT22;11220;48.812;9.128;2023-08-06T13:35:35;21.10;92.90
22108;DHT22;11220;48.812;9.128;2023-08-06T13:38:01;21.20;92.90
22108;DHT22;11220;48.812;9.128;2023-08-06T13:40:32;21.30;92.80
22108;DHT22;11220;48.812;9.128;2023-08-06T13:42:57;21.20;92.80
22108;DHT22;11220;48.812;9.128;2023-08-06T13:45:23;21.20;92.70
22108;DHT22;11220;48.812;9.128;2023-08-06T13:47:49;21.40;92.80
22108;DHT22;11220;48.812;9.128;2023-08-06T13:50:14;21.10;92.60
22108;DHT22;11220;48.812;9.128;2023-08-06T13:52:40;21.10;92.70
22108;DHT22;11220;48.812;9.128;2023-08-06T13:55:06;21.10;92.80
22108;DHT22;11220;48.812;9.128;2023-08-06T13:57:32;21.10;92.60
22108;DHT22;11220;48.812;9.128;2023-08-06T13:59:57;21.10;92.50
22108;DHT22;11220;48.812;9.128;2023-08-06T14:02:23;21.10;92.30
22108;DHT22;11220;48.812;9.128;2023-08-06T14:04:49;21.10;92.20
22108;DHT22;11220;48.812;9.128;2023-08-06T14:07:14;21.00;92.20
22108;DHT22;11220;48.812;9.128;2023-08-06T14:09:40;21.00;92.20
22108;DHT22;11220;48.812;9.128;2023-08-06T14:12:07;21.10;92.40
22108;DHT22;11220;48.812;9.128;2023-08-06T14:14:33;21.00;92.40
22108;DHT22;11220;48.812;9.128;2023-08-06T14:16:58;21.10;92.50
22108;DHT22;11220;48.812;9.128;2023-08-06T14:19:24;21.10;92.60
22108;DHT22;11220;48.812;9.128;2023-08-06T14:21:49;21.20;92.70
22108;DHT22;11220;48.812;9.128;2023-08-06T14:24:15;21.10;92.60
22108;DHT22;11220;48.812;9.128;2023-08-06T14:26:40;21.10;92.70
22108;DHT22;11220;48.812;9.128;2023-08-06T14:29:06;21.10;93.10
22108;DHT22;11220;48.812;9.128;2023-08-06T14:31:32;21.30;93.40
22108;DHT22;11220;48.812;9.128;2023-08-06T14:33:57;21.30;93.60
22108;DHT22;11220;48.812;9.128;2023-08-06T14:36:23;21.20;93.10
22108;DHT22;11220;48.812;9.128;2023-08-06T14:38:48;21.30;93.10
22108;DHT22;11220;48.812;9.128;2023-08-06T14:41:14;21.50;93.20
22108;DHT22;11220;48.812;9.128;2023-08-06T14:43:39;21.40;93.20
22108;DHT22;11220;48.812;9.128;2023-08-06T14:46:05;21.40;93.20
22108;DHT22;11220;48.812;9.128;2023-08-06T14:48:31;21.40;92.90
22108;DHT22;11220;48.812;9.128;2023-08-06T14:50:56;21.40;92.90
22108;DHT22;11220;48.812;9.128;2023-08-06T14:53:22;21.50;92.90
22108;DHT22;11220;48.812;9.128;2023-08-06T14:55:48;22.00;93.10
22108;DHT22;11220;48.812;9.128;2023-08-06T14:58:14;21.70;92.90
22108;DHT22;11220;48.812;9.128;2023-08-06T15:00:39;21.40;92.70
22108;DHT22;11220;48.812;9.128;2023-08-06T15:03:05;21.40;92.70
22108;DHT22;11220;48.812;9.128;2023-08-06T15:05:31;21.40;92.80
22108;DHT22;11220;48.812;9.128;2023-08-06T15:07:56;21.40;92.70
22108;DHT22;11220;48.812;9.128;2023-08-06T15:10:22;21.40;92.60
22108;DHT22;11220;48.812;9.128;2023-08-06T15:12:48;21.50;92.60
22108;DHT22;11220;48.812;9.128;2023-08-06T15:15:14;21.50;92.60
22108;DHT22;11220;48.812;9.128;2023-08-06T15:17:39;21.60;92.60
22108;DHT22;11220;48.812;9.128;2023-08-06T15:20:05;21.60;92.50
22108;DHT22;11220;48.812;9.128;2023-08-06T15:22:31;21.70;92.50
22108;DHT22;11220;48.812;9.128;2023-08-06T15:25:01;21.70;92.40
22108;DHT22;11220;48.812;9.128;2023-08-06T15:27:27;21.70;92.40
22108;DHT22;11220;48.812;9.128;2023-08-06T15:29:52;21.70;92.50
22108;DHT22;11220;48.812;9.128;2023-08-06T15:32:18;21.80;92.50
22108;DHT22;11220;48.812;9.128;2023-08-06T15:34:44;21.70;92.40